Aérodrome :
LOGIN :

S'inscrire | Disclaimer

   EN    FR    IT 

 










Légende :    VFR   VFR Marginal   IFR   IFR Intensif   IFR Très Intensif
Visi : 
Plafond : 
>= 8 km
>= 3000ft
5 à 8 km
1000 à 3000 ft
1500m à 5 km
500 à 1000 ft
800 à 1500m
200 à 500 ft
< 800m
< 200 ft
Symboles :   Orages  Brouillard  Fortes neiges  Fortes précipitations  Vent > 20 kt
SIGMETs :   Divers  Orages  Givrage  Turbulence  Onde Orograph.  Cendres Volcan.







- Altitude de l'aérodrome : 1306 ft
- Code IATA : ACH


LSZR - Alten Rhein

DERNIER METAR :
  • 251620Z AUTO 30012KT 9999 BKN050 SCT090 07/M00 Q1022

METARs EXPIRÉS :
  • 251550Z 32014KT 9999 VCSH FEW040 SCT060 BKN080 09/M01 Q1021 NOSIG RMK L
  • 251520Z 32014KT 9999 VCSH FEW040 SCT060 BKN080 09/M01 Q1021 NOSIG RMK L
  • 251450Z 30012KT 9999 VCSH FEW040 SCT080 08/M02 Q1021 NOSIG RMK K
  • 251420Z 30012KT 9999 VCSH FEW040 SCT080 09/M01 Q1021 NOSIG RMK K
  • 251350Z 30013KT 9999 BKN060 08/M01 Q1022 NOSIG RMK J

TAF TAF LSZR
Valide du 25 à 15h jusqu'au 26 à 00h UTC


251425Z 2515/2524 30013KT 9999 BKN060
PROB40
TEMPO 2515/2524 SHRA SCT040TCU
TEMPO 2515/2519 32015G28KT
ATIS : +41 71 858 51 66
Pas de NOTAMs connus pour ce terrain.



MET'MAP, la Météo Aéronautique d'un coup d'oeil ! - Copyright ORBIFLY Décembre 2007 - Disclaimer

ORBIFLY MET'MAP TEAM :

Programmation & Développement : Alexandra Zaïnal
Conception & Développement : Baudouin d'Aumeries
Co-Programmation & Développement : Marc-Olivier Méhu
Soutien technique & logistique : Manuel Goepfert

Contact : metmap@orbifly.com




SOURCES & CREDITS :

   NOAA